Carlton, AL (36515)

4:50 PM CDT on July 26, 2016 (GMT -0500)
Jackson, AL | | Change Station

Elev 53 ft 31.49 °N, 87.90 °W | Updated 0 second ago

Light Rain
Light Rain
82.0 °F
Feels Like 91 °F
N
0.0
Wind Variable Wind from SE
Gusts 0.0 mph

Today
High -- | Low -- °F
--% Chance of Precip.
Yesterday
High -- | Low -- °F
Precip. -- in
Pressure 29.97 in
Visibility 10.0 miles
Clouds Mostly Cloudy 7500 ft
Overcast 9000 ft
Heat Index 91 °F
Dew Point 78 °F
Humidity 88%
Rainfall 0.01 in
Snow Depth Not available.
6:04 AM 7:50 PM
Waning Gibbous, 50% visible
METAR KGZH 262053Z AUTO 13005KT 10SM -RA BKN075 OVC090 26/24 A2998 RMK AO2 RAE25B51 SLP148 P0001 60006 T02610239 56012 TSNO
Pressure 29.97 in
Visibility 10.0 miles
Clouds Mostly Cloudy 7500 ft
Overcast 9000 ft
Heat Index 91 °F
Dew Point 78 °F
Humidity 88%
Rainfall 0.01 in
Snow Depth Not available.
6:04 AM 7:50 PM
Waning Gibbous, 50% visible
METAR KGZH 262053Z AUTO 13005KT 10SM -RA BKN075 OVC090 26/24 A2998 RMK AO2 RAE25B51 SLP148 P0001 60006 T02610239 56012 TSNO

10-Day Weather Forecast

Almanac

Astronomy

Jul. 26, 2016 Rise Set
Actual Time
Civil Twilight
Nautical Twilight
Astronomical Twilight
Moon
Length of Visible Light
Length of Day
Tomorrow will be .
, % of the Moon is Illuminated

Today's Extremes

State Highs State Lows

Community

WunderPhotos

Upload Photos

1,927,702 photos uploaded!

WunderBlog® & News

Nearby

Air Quality

  Air Quality AQ Index Pollutant
Not available.

Snow Depth

Station Depth Elevation

Earthquake Activity

City Distance Mag. Time & Date
Minimum magnitude displayed is 2.5.

Coastal Water Temperatures

Place Temperature

Stations

Nearby Weather Stations

Station Location Temp. Windchill Dew Point Humidity Wind Precip. Elev Updated Type
                   

Watches & Warnings

There are currently no watches in effect.